Time;durP1;ratioP1;P1;durP2;ratioP2;P2;SDS_P1;SDS_P2;PMS_P1;PMS_P2;Temp;Humidity;BMP_temperature;BMP_pressure;BME280_temperature;BME280_humidity;BME280_pressure;Samples;Min_cycle;Max_cycle;Signal;HPM_P1;HPM_P2
2022/03/05 00:38:03;;;;;;;3.47;2.08;;;-0.50;99.90;;;;;;6215267;23;20454;-86
2022/03/05 00:45:09;;;;;;;5.82;2.58;;;-1.60;99.90;;;;;;6214985;23;20108;-86
2022/03/05 00:48:23;;;;;;;5.07;2.10;;;-0.80;99.90;;;;;;6065312;23;20195;-86
2022/03/05 01:01:24;;;;;;;5.28;2.53;;;-1.00;99.90;;;;;;6215554;22;20311;-85
2022/03/05 01:07:14;;;;;;;5.55;2.30;;;-2.20;99.90;;;;;;6218514;22;20351;-86
2022/03/05 01:14:13;;;;;;;7.07;3.17;;;-2.20;99.90;;;;;;6151642;23;20028;-84
2022/03/05 01:17:40;;;;;;;6.25;3.05;;;-2.40;99.90;;;;;;6035996;23;20541;-85
2022/03/05 01:20:40;;;;;;;5.07;2.67;;;-2.30;99.90;;;;;;6115717;22;20024;-85
2022/03/05 01:23:39;;;;;;;6.43;3.22;;;-1.30;99.90;;;;;;6169477;22;20028;-86
2022/03/05 01:27:07;;;;;;;6.55;3.20;;;-1.80;99.90;;;;;;6110919;23;20027;-85
2022/03/05 01:33:37;;;;;;;5.53;2.72;;;-2.50;99.90;;;;;;6122394;23;20473;-86
2022/03/05 01:36:18;;;;;;;9.05;3.50;;;-2.20;99.90;;;;;;6121387;23;20040;-84
2022/03/05 01:38:46;;;;;;;6.95;3.60;;;-2.50;99.90;;;;;;6094890;23;20014;-85
2022/03/05 01:41:51;;;;;;;6.40;3.30;;;-1.80;99.90;;;;;;6123161;23;20026;-85
2022/03/05 01:44:47;;;;;;;9.93;3.08;;;-2.20;99.90;;;;;;6117279;23;20037;-85
2022/03/05 01:47:47;;;;;;;6.43;3.17;;;-1.40;99.90;;;;;;6098039;23;20036;-85
2022/03/05 01:50:20;;;;;;;7.88;3.83;;;-2.10;99.90;;;;;;6097235;23;20014;-85
2022/03/05 01:56:16;;;;;;;7.05;3.28;;;-2.90;99.90;;;;;;6114175;23;20092;-85
2022/03/05 01:58:51;;;;;;;4.70;2.75;;;-2.30;99.90;;;;;;6119337;23;20030;-85
2022/03/05 02:01:44;;;;;;;6.70;2.90;;;-2.70;99.90;;;;;;6122451;23;20061;-85
2022/03/05 02:04:25;;;;;;;5.93;3.55;;;-2.40;99.90;;;;;;6097989;23;20366;-85
2022/03/05 02:06:59;;;;;;;8.82;4.57;;;-0.80;99.90;;;;;;6121672;23;20521;-85
2022/03/05 02:13:12;;;;;;;6.63;3.30;;;-2.10;99.90;;;;;;6214258;23;20099;-85
2022/03/05 02:15:59;;;;;;;6.65;3.35;;;-1.50;99.90;;;;;;6214316;23;20024;-85
2022/03/05 02:19:10;;;;;;;;;;;;;;;;;;;;;
2022/03/05 02:22:06;;;;;;;7.22;3.47;;;-2.10;99.90;;;;;;6242453;23;20024;-84
2022/03/05 02:24:41;;;;;;;9.07;4.72;;;-2.30;99.90;;;;;;6243872;23;20020;-85
2022/03/05 02:27:10;;;;;;;9.23;4.32;;;-2.10;99.90;;;;;;6217758;23;20027;-85
2022/03/05 02:29:47;;;;;;;6.60;3.47;;;-0.70;99.90;;;;;;6244542;23;20020;-86
2022/03/05 02:32:35;;;;;;;7.30;3.53;;;-1.90;99.90;;;;;;6216719;23;20342;-84
2022/03/05 02:35:11;;;;;;;5.75;3.08;;;-1.60;99.90;;;;;;6215164;23;20020;-85
2022/03/05 02:37:39;;;;;;;7.10;3.55;;;-2.30;99.90;;;;;;6190938;23;20027;-85
2022/03/05 02:40:23;;;;;;;8.52;3.83;;;-1.10;99.90;;;;;;6193055;23;20020;-85
2022/03/05 02:43:13;;;;;;;8.60;3.88;;;-1.70;99.90;;;;;;6192830;23;20016;-86
2022/03/05 02:52:59;;;;;;;6.40;2.80;;;-2.20;99.90;;;;;;5980624;24;20072;-84
2022/03/05 02:55:38;;;;;;;5.32;2.78;;;-2.00;99.90;;;;;;5957257;24;20028;-85
2022/03/05 02:58:07;;;;;;;8.55;3.55;;;-2.10;99.90;;;;;;5957176;24;20061;-86
2022/03/05 03:01:21;;;;;;;;;;;;;;;;;;;;;
2022/03/05 03:03:47;;;;;;;6.90;3.30;;;-2.00;99.90;;;;;;5954610;24;20008;-85
2022/03/05 03:06:34;;;;;;;8.45;3.38;;;-1.80;99.90;;;;;;5960064;24;20028;-84
2022/03/05 03:13:41;;;;;;;7.70;3.25;;;-2.00;99.90;;;;;;5981039;24;20051;-84
2022/03/05 03:16:17;;;;;;;6.53;2.97;;;-2.00;99.90;;;;;;5980717;24;20487;-85
2022/03/05 03:19:11;;;;;;;6.88;3.05;;;0.10;99.90;;;;;;5959272;23;20354;-85
2022/03/05 03:21:53;;;;;;;5.45;2.40;;;-1.80;99.90;;;;;;5980786;24;20470;-85
2022/03/05 03:24:34;;;;;;;8.98;3.38;;;-2.60;99.90;;;;;;5987277;23;20027;-86
2022/03/05 03:27:11;;;;;;;8.63;3.33;;;-2.00;99.90;;;;;;5981812;23;20026;-85
2022/03/05 03:29:40;;;;;;;6.35;3.38;;;-1.70;99.90;;;;;;6070228;23;20022;-85
2022/03/05 03:32:13;;;;;;;8.98;3.38;;;-1.80;99.90;;;;;;6123541;23;20368;-84
2022/03/05 03:34:44;;;;;;;5.60;2.80;;;-2.10;99.90;;;;;;6098992;23;20033;-86
2022/03/05 03:37:28;;;;;;;6.22;3.08;;;-1.50;99.90;;;;;;6099277;23;20021;-86
2022/03/05 03:40:08;;;;;;;5.05;2.70;;;-1.90;99.90;;;;;;6146968;23;20016;-85
2022/03/05 03:42:41;;;;;;;5.57;2.88;;;-1.90;99.90;;;;;;6215949;23;20324;-85
2022/03/05 03:45:15;;;;;;;6.70;2.65;;;-1.60;99.90;;;;;;6215706;23;20013;-85
2022/03/05 03:47:46;;;;;;;5.25;2.60;;;-2.30;99.90;;;;;;6188748;23;20043;-85
2022/03/05 03:50:16;;;;;;;4.95;2.20;;;-0.10;99.90;;;;;;6164675;23;20428;-86
2022/03/05 03:52:47;;;;;;;5.03;2.35;;;-2.10;99.90;;;;;;6189897;23;20064;-86
2022/03/05 03:55:18;;;;;;;6.10;2.22;;;-2.10;99.90;;;;;;6163772;23;20013;-85
2022/03/05 03:57:46;;;;;;;6.97;2.58;;;-1.20;99.90;;;;;;6215704;23;20017;-85
2022/03/05 04:00:23;;;;;;;5.63;2.53;;;-1.50;99.90;;;;;;6188506;23;20049;-85
2022/03/05 04:02:54;;;;;;;4.82;1.92;;;-2.20;99.90;;;;;;6188503;23;20352;-86
2022/03/05 04:05:28;;;;;;;3.85;2.13;;;-2.20;99.90;;;;;;6215567;23;20012;-86
2022/03/05 04:10:49;;;;;;;6.75;2.28;;;-2.40;99.90;;;;;;6188817;23;20051;-85
2022/03/05 04:13:20;;;;;;;5.70;2.33;;;-1.30;99.90;;;;;;6189744;23;20324;-85
2022/03/05 04:15:52;;;;;;;6.00;2.38;;;-1.50;99.90;;;;;;6188439;23;20024;-85
2022/03/05 04:18:23;;;;;;;3.47;1.58;;;-1.30;99.90;;;;;;6188721;23;20251;-86
2022/03/05 04:20:51;;;;;;;6.40;2.40;;;-2.40;99.90;;;;;;6236634;22;20082;-85
2022/03/05 04:23:19;;;;;;;4.50;1.92;;;-2.80;99.90;;;;;;6218934;23;20099;-85
2022/03/05 04:25:45;;;;;;;4.47;2.03;;;-2.10;99.90;;;;;;6245427;23;20012;-85
2022/03/05 04:28:15;;;;;;;5.05;2.17;;;-1.70;99.90;;;;;;6219198;23;20091;-86
2022/03/05 04:30:44;;;;;;;5.28;2.38;;;-2.00;99.90;;;;;;6193346;23;20517;-85
2022/03/05 04:33:13;;;;;;;5.75;2.20;;;-2.00;99.90;;;;;;6245573;23;20421;-85
2022/03/05 04:35:41;;;;;;;6.28;2.10;;;-2.40;99.90;;;;;;6218856;23;20090;-85
2022/03/05 04:38:07;;;;;;;6.45;2.58;;;-1.90;99.90;;;;;;6219150;23;20031;-84
2022/03/05 04:40:33;;;;;;;4.78;2.40;;;-0.80;99.90;;;;;;6193799;23;20339;-86
2022/03/05 04:43:02;;;;;;;5.30;2.00;;;-2.20;99.90;;;;;;6192796;23;20024;-86
2022/03/05 04:45:28;;;;;;;5.30;2.35;;;-2.50;99.90;;;;;;6219039;23;20074;-84
2022/03/05 04:47:59;;;;;;;4.88;2.35;;;-2.10;99.90;;;;;;6245238;23;20020;-85
2022/03/05 04:50:27;;;;;;;5.57;2.70;;;-2.20;99.90;;;;;;6193878;23;20020;-85
2022/03/05 04:52:53;;;;;;;4.40;2.05;;;-2.60;99.90;;;;;;6245761;23;20016;-85
2022/03/05 04:55:19;;;;;;;4.38;1.98;;;-2.60;99.90;;;;;;6218825;23;20043;-85
2022/03/05 04:57:44;;;;;;;4.55;1.90;;;-2.50;99.90;;;;;;6218777;23;20012;-84
2022/03/05 05:00:13;;;;;;;6.65;2.08;;;-0.60;99.90;;;;;;6218779;23;20084;-86
2022/03/05 05:02:39;;;;;;;3.22;1.80;;;-2.60;99.90;;;;;;6218349;23;20103;-86
2022/03/05 05:05:05;;;;;;;5.00;2.25;;;-1.20;99.90;;;;;;6245151;23;20043;-85
2022/03/05 05:07:31;;;;;;;6.65;1.92;;;-2.50;99.90;;;;;;6218287;23;20446;-85
2022/03/05 05:09:57;;;;;;;3.63;1.83;;;-2.60;99.90;;;;;;6244460;23;20339;-86
2022/03/05 05:12:26;;;;;;;5.30;2.25;;;-2.60;99.90;;;;;;6245617;23;20016;-85
2022/03/05 05:14:51;;;;;;;4.82;2.25;;;-2.70;99.90;;;;;;6218097;23;20020;-86
2022/03/05 05:17:17;;;;;;;3.40;2.00;;;-2.40;99.90;;;;;;6218498;23;20031;-86
2022/03/05 05:19:43;;;;;;;4.53;1.90;;;-2.50;99.90;;;;;;6244485;22;20012;-86
2022/03/05 05:22:09;;;;;;;4.32;1.80;;;-0.90;99.90;;;;;;6245229;23;20063;-85
2022/03/05 05:24:36;;;;;;;5.43;2.45;;;-1.90;99.90;;;;;;6217950;23;20020;-85
2022/03/05 05:27:03;;;;;;;4.90;1.83;;;-2.60;99.90;;;;;;6244853;23;20016;-86
2022/03/05 05:29:29;;;;;;;5.07;2.35;;;-2.70;99.90;;;;;;6245385;23;20024;-85
2022/03/05 05:31:55;;;;;;;4.53;2.03;;;-2.10;99.90;;;;;;6218264;23;20020;-86
2022/03/05 05:34:22;;;;;;;4.30;1.90;;;-2.40;99.90;;;;;;6245409;23;20016;-87
2022/03/05 05:36:47;;;;;;;3.97;2.22;;;-2.70;99.90;;;;;;6218434;23;20450;-86
2022/03/05 05:39:16;;;;;;;4.95;2.30;;;-2.80;99.90;;;;;;6245213;23;20099;-86
2022/03/05 05:41:42;;;;;;;3.47;1.63;;;-2.90;99.90;;;;;;6245184;23;20071;-85
2022/03/05 05:44:11;;;;;;;4.60;2.08;;;-2.00;99.90;;;;;;6218023;23;20016;-86
2022/03/05 05:46:37;;;;;;;3.55;1.88;;;-3.50;99.90;;;;;;6218327;23;20020;-85
2022/03/05 05:49:04;;;;;;;4.57;2.45;;;-1.50;99.90;;;;;;6244643;23;20012;-86
2022/03/05 05:51:30;;;;;;;6.53;2.42;;;-2.10;99.90;;;;;;6218320;23;20087;-84
2022/03/05 05:53:56;;;;;;;3.40;1.85;;;-2.50;99.90;;;;;;6245372;23;20020;-86
2022/03/05 05:56:23;;;;;;;5.97;2.10;;;-2.90;99.90;;;;;;6217597;23;20016;-85
2022/03/05 05:58:49;;;;;;;5.20;2.20;;;-2.60;99.90;;;;;;6218027;23;20074;-86
2022/03/05 06:01:16;;;;;;;4.07;2.15;;;-2.40;99.90;;;;;;6244881;23;20020;-85
2022/03/05 06:03:44;;;;;;;5.05;2.13;;;-1.70;99.90;;;;;;6218414;23;20094;-86
2022/03/05 06:06:11;;;;;;;5.40;3.03;;;-1.70;99.90;;;;;;6244808;23;20019;-85
2022/03/05 06:08:37;;;;;;;5.53;2.42;;;-2.90;99.90;;;;;;6217811;23;20439;-86
2022/03/05 06:11:03;;;;;;;4.90;2.15;;;-1.30;99.90;;;;;;6218033;23;20099;-87
2022/03/05 06:13:28;;;;;;;5.28;2.08;;;-1.90;99.90;;;;;;6244907;23;20016;-86
2022/03/05 06:15:54;;;;;;;7.32;2.92;;;-1.10;99.90;;;;;;6217991;23;20027;-84
2022/03/05 06:18:20;;;;;;;5.30;2.40;;;-3.00;99.90;;;;;;6217998;23;20067;-85
2022/03/05 06:20:46;;;;;;;4.82;2.08;;;-1.60;99.90;;;;;;6226736;22;20021;-85
2022/03/05 06:23:12;;;;;;;5.03;2.22;;;-2.70;99.90;;;;;;6215405;23;20164;-86
2022/03/05 06:25:37;;;;;;;6.55;2.63;;;-3.10;99.90;;;;;;6165297;23;20013;-85
2022/03/05 06:28:03;;;;;;;6.75;3.15;;;-3.40;99.90;;;;;;6216297;23;20123;-86
2022/03/05 06:30:29;;;;;;;6.40;3.03;;;-2.90;99.90;;;;;;6189805;23;20351;-85
2022/03/05 06:32:55;;;;;;;7.75;3.00;;;-2.90;99.90;;;;;;6190252;23;20028;-86
2022/03/05 06:35:24;;;;;;;7.25;3.45;;;-2.20;99.90;;;;;;6216716;23;20396;-83
2022/03/05 06:37:52;;;;;;;7.07;3.00;;;-3.10;99.90;;;;;;6190145;23;20075;-85
2022/03/05 06:40:24;;;;;;;6.20;2.90;;;-2.70;99.90;;;;;;6189694;23;20343;-86
2022/03/05 06:42:49;;;;;;;6.30;3.63;;;-2.60;99.90;;;;;;6189875;23;20474;-85
2022/03/05 06:45:16;;;;;;;7.93;2.88;;;-1.60;99.90;;;;;;6216499;23;20016;-85
2022/03/05 06:47:41;;;;;;;5.55;2.65;;;-2.10;99.90;;;;;;6189033;23;20021;-84
2022/03/05 06:50:09;;;;;;;6.78;3.00;;;-1.60;99.90;;;;;;6190030;23;20023;-85
2022/03/05 06:52:35;;;;;;;4.85;2.22;;;-2.50;99.90;;;;;;6216540;23;20447;-85
2022/03/05 06:55:01;;;;;;;6.50;2.90;;;-1.60;99.90;;;;;;6190210;23;20095;-85
2022/03/05 06:57:27;;;;;;;6.57;2.95;;;-2.30;99.90;;;;;;6189031;23;20024;-84
2022/03/05 06:59:53;;;;;;;5.35;2.53;;;-2.50;99.90;;;;;;6189120;23;20492;-86
2022/03/05 07:02:28;;;;;;;5.40;2.85;;;-2.60;99.90;;;;;;6215861;23;20324;-84
2022/03/05 07:04:53;;;;;;;4.82;2.58;;;-2.60;99.90;;;;;;6188702;23;20048;-86
2022/03/05 07:07:19;;;;;;;6.32;2.50;;;-2.70;99.90;;;;;;6215996;23;20013;-83
2022/03/05 07:09:45;;;;;;;6.50;2.80;;;-2.60;99.90;;;;;;6188912;23;20107;-86
2022/03/05 07:12:10;;;;;;;5.45;2.50;;;-1.60;99.90;;;;;;6216027;23;20020;-86
2022/03/05 07:14:36;;;;;;;4.90;2.20;;;-2.50;99.90;;;;;;6190055;23;20020;-87
2022/03/05 07:17:03;;;;;;;5.70;2.70;;;-2.40;99.90;;;;;;6215933;23;20016;-85
2022/03/05 07:19:29;;;;;;;4.53;2.55;;;-2.40;99.90;;;;;;6190984;22;20020;-87
2022/03/05 07:21:55;;;;;;;5.47;2.97;;;-1.90;99.90;;;;;;6216472;23;20029;-86
2022/03/05 07:24:21;;;;;;;6.10;2.80;;;-2.20;99.90;;;;;;6188979;23;20024;-87
2022/03/05 07:26:47;;;;;;;7.72;2.53;;;-0.80;99.90;;;;;;6216384;23;20063;-86
2022/03/05 07:29:13;;;;;;;7.28;2.70;;;-1.30;99.90;;;;;;6216171;23;20434;-87
2022/03/05 07:31:39;;;;;;;7.32;3.10;;;-2.00;99.90;;;;;;6215940;23;20443;-87
2022/03/05 07:34:05;;;;;;;6.93;2.70;;;-1.90;99.90;;;;;;6215841;23;20071;-87
2022/03/05 07:36:30;;;;;;;4.85;2.63;;;-1.00;99.90;;;;;;6215773;23;20016;-87
2022/03/05 07:38:56;;;;;;;6.03;2.47;;;-1.70;99.90;;;;;;6215670;23;20067;-85
2022/03/05 07:41:22;;;;;;;6.38;2.55;;;-0.80;99.90;;;;;;6215940;23;20028;-87
2022/03/05 07:43:48;;;;;;;4.85;2.20;;;-1.50;99.90;;;;;;6216229;23;20020;-86
2022/03/05 07:46:13;;;;;;;6.35;2.85;;;-1.40;99.90;;;;;;6215436;23;20087;-88
2022/03/05 07:48:39;;;;;;;4.53;2.30;;;-1.20;99.90;;;;;;6215543;23;20048;-87
2022/03/05 07:51:05;;;;;;;5.47;2.35;;;-1.10;99.90;;;;;;6216149;23;20011;-87
2022/03/05 07:53:34;;;;;;;5.85;2.20;;;-1.00;99.90;;;;;;6216170;23;20074;-85
2022/03/05 07:56:00;;;;;;;6.50;2.78;;;-0.90;99.90;;;;;;6189056;23;20099;-86
2022/03/05 07:58:26;;;;;;;5.38;2.38;;;-0.70;99.90;;;;;;6216020;23;20013;-85
2022/03/05 08:00:51;;;;;;;5.22;2.00;;;-0.60;99.90;;;;;;6215508;23;20020;-85
2022/03/05 08:03:17;;;;;;;3.42;2.05;;;-0.50;99.90;;;;;;6215887;23;20048;-86
2022/03/05 08:05:44;;;;;;;7.43;2.85;;;-0.50;99.90;;;;;;6189260;23;20019;-87
2022/03/05 08:08:10;;;;;;;6.18;2.90;;;-0.30;99.90;;;;;;6215677;23;20012;-86
2022/03/05 08:10:37;;;;;;;9.60;4.13;;;0.00;99.90;;;;;;6215977;23;20320;-86
2022/03/05 08:13:02;;;;;;;8.95;4.75;;;0.00;99.90;;;;;;6216308;23;20034;-85
2022/03/05 08:15:28;;;;;;;8.30;4.22;;;0.10;99.90;;;;;;6215917;23;20048;-84
2022/03/05 08:18:01;;;;;;;8.50;4.45;;;0.20;99.90;;;;;;6215497;23;20140;-87
2022/03/05 08:20:30;;;;;;;12.73;5.35;;;0.40;99.90;;;;;;6226052;22;20027;-84
2022/03/05 08:22:56;;;;;;;9.43;4.60;;;0.50;99.90;;;;;;6245832;23;20324;-86
2022/03/05 08:25:24;;;;;;;10.30;5.13;;;0.70;99.90;;;;;;6234387;23;20016;-85
2022/03/05 08:27:49;;;;;;;8.48;4.72;;;1.80;99.90;;;;;;6246953;23;20320;-86
2022/03/05 08:30:17;;;;;;;9.63;4.95;;;0.90;99.90;;;;;;6246667;23;20095;-86
2022/03/05 08:32:44;;;;;;;8.32;4.40;;;1.00;99.90;;;;;;6219304;23;20525;-85
2022/03/05 08:35:11;;;;;;;11.57;5.35;;;1.80;99.90;;;;;;6246075;23;20044;-84
2022/03/05 08:37:40;;;;;;;11.18;4.95;;;1.70;99.90;;;;;;6219481;23;20016;-86
2022/03/05 08:40:08;;;;;;;12.18;5.55;;;1.30;99.90;;;;;;6246144;23;20012;-83
2022/03/05 08:42:34;;;;;;;9.80;4.50;;;1.40;99.90;;;;;;6246867;23;20020;-85
2022/03/05 08:45:01;;;;;;;10.23;5.25;;;1.50;99.90;;;;;;6246434;23;20016;-86
2022/03/05 08:47:27;;;;;;;11.43;5.53;;;1.60;99.90;;;;;;6245681;23;20458;-84
2022/03/05 08:49:53;;;;;;;9.70;4.93;;;1.70;99.90;;;;;;6246250;23;20019;-85
2022/03/05 08:52:19;;;;;;;11.30;4.90;;;1.80;99.90;;;;;;6246134;23;20012;-83
2022/03/05 08:54:44;;;;;;;12.35;5.55;;;1.90;99.90;;;;;;6219101;23;20335;-85
2022/03/05 08:57:11;;;;;;;13.65;5.65;;;2.00;99.90;;;;;;6246247;23;20016;-86
2022/03/05 08:59:37;;;;;;;9.52;4.97;;;2.00;99.90;;;;;;6246323;23;20008;-85
2022/03/05 09:02:04;;;;;;;9.80;4.88;;;2.10;99.90;;;;;;6245933;23;20023;-86
2022/03/05 09:04:30;;;;;;;9.10;5.03;;;1.30;99.90;;;;;;6218726;23;20467;-85
2022/03/05 09:06:55;;;;;;;13.75;5.68;;;3.10;99.90;;;;;;6246156;23;20020;-86
2022/03/05 09:09:21;;;;;;;12.75;5.35;;;1.80;99.90;;;;;;6245739;23;20012;-86
2022/03/05 09:11:47;;;;;;;12.38;5.32;;;2.00;99.90;;;;;;6245810;23;20023;-85
2022/03/05 09:14:13;;;;;;;10.82;4.90;;;3.80;99.90;;;;;;6219895;23;20016;-85
2022/03/05 09:16:40;;;;;;;11.30;5.88;;;3.60;99.90;;;;;;6246586;23;20024;-85
2022/03/05 09:19:06;;;;;;;11.57;5.00;;;2.70;99.90;;;;;;6246229;23;20422;-84
2022/03/05 09:21:34;;;;;;;10.65;5.18;;;3.30;99.90;;;;;;6245414;23;20324;-85
2022/03/05 09:24:04;;;;;;;11.60;5.07;;;2.80;99.90;;;;;;6246224;23;20559;-84
2022/03/05 09:26:32;;;;;;;9.65;5.35;;;2.90;99.90;;;;;;6248387;23;20016;-82
2022/03/05 09:28:58;;;;;;;10.80;5.13;;;3.30;99.90;;;;;;6256395;23;20083;-83
2022/03/05 09:31:24;;;;;;;8.80;4.72;;;2.40;99.90;;;;;;6229329;23;20477;-84
2022/03/05 09:33:51;;;;;;;10.10;5.50;;;4.10;99.90;;;;;;6197166;23;20087;-83
2022/03/05 09:36:16;;;;;;;7.70;4.35;;;3.70;99.90;;;;;;6218182;23;20023;-82
2022/03/05 09:38:42;;;;;;;10.05;5.05;;;3.00;99.90;;;;;;6218214;23;20107;-81
2022/03/05 09:41:08;;;;;;;10.30;4.50;;;3.90;99.90;;;;;;6218952;23;20469;-81
2022/03/05 09:43:37;;;;;;;11.93;5.18;;;4.10;99.90;;;;;;6218904;23;20023;-82
2022/03/05 09:46:03;;;;;;;9.60;4.90;;;3.60;99.90;;;;;;6245675;23;20023;-82
2022/03/05 09:48:30;;;;;;;13.20;5.75;;;4.40;99.90;;;;;;6218316;23;20024;-81
2022/03/05 09:50:58;;;;;;;10.57;4.95;;;3.90;99.90;;;;;;6218284;23;20020;-81
2022/03/05 09:53:29;;;;;;;8.57;4.20;;;3.80;99.90;;;;;;6245575;23;20008;-82
2022/03/05 09:55:54;;;;;;;12.35;4.97;;;4.40;99.90;;;;;;6218746;23;20020;-81
2022/03/05 09:58:20;;;;;;;9.23;4.55;;;4.00;99.90;;;;;;6247614;23;20084;-82
2022/03/05 10:00:50;;;;;;;9.63;4.88;;;4.30;99.90;;;;;;6220322;23;20059;-83
2022/03/05 10:03:17;;;;;;;11.55;4.95;;;4.90;99.90;;;;;;6220257;23;20020;-82
2022/03/05 10:05:42;;;;;;;7.63;4.60;;;4.30;99.90;;;;;;6247066;23;20012;-81
2022/03/05 10:08:20;;;;;;;11.57;4.40;;;4.30;99.90;;;;;;6247673;23;20056;-82
2022/03/05 10:10:51;;;;;;;10.25;4.97;;;5.10;99.90;;;;;;6220427;23;20027;-83
2022/03/05 10:13:17;;;;;;;9.75;4.32;;;5.20;99.90;;;;;;6247503;23;20023;-83
2022/03/05 10:15:43;;;;;;;8.88;4.78;;;4.30;99.90;;;;;;6247643;23;20027;-86
2022/03/05 10:18:09;;;;;;;8.50;4.65;;;5.40;99.90;;;;;;6220659;23;20016;-83
2022/03/05 10:20:52;;;;;;;10.70;4.70;;;4.90;99.90;;;;;;6246890;23;20071;-83
2022/03/05 10:23:19;;;;;;;11.05;4.35;;;4.50;99.90;;;;;;6220345;23;20020;-84
2022/03/05 10:25:51;;;;;;;12.35;5.57;;;4.60;99.90;;;;;;6220282;23;20020;-84
2022/03/05 10:28:25;;;;;;;15.13;6.07;;;4.60;99.90;;;;;;6220737;23;20099;-83
2022/03/05 10:31:01;;;;;;;11.65;4.90;;;4.80;99.90;;;;;;6247999;23;20023;-85
2022/03/05 10:33:36;;;;;;;10.30;4.63;;;4.90;99.90;;;;;;6220647;23;20343;-84
2022/03/05 10:36:09;;;;;;;9.77;4.93;;;5.70;99.90;;;;;;6220686;23;20031;-83
2022/03/05 10:38:58;;;;;;;9.65;4.57;;;4.90;99.90;;;;;;6220257;23;20358;-83
2022/03/05 10:41:35;;;;;;;7.65;4.40;;;5.00;99.90;;;;;;6220164;23;20087;-83
2022/03/05 10:44:05;;;;;;;11.43;5.20;;;5.10;99.90;;;;;;6247327;23;20016;-83
2022/03/05 10:46:41;;;;;;;12.52;5.30;;;5.20;99.90;;;;;;6219871;23;20343;-82
2022/03/05 10:49:14;;;;;;;13.00;6.38;;;5.20;99.90;;;;;;6246640;23;20016;-82
2022/03/05 10:51:40;;;;;;;12.10;5.45;;;5.30;99.90;;;;;;6219950;23;20027;-83
2022/03/05 10:54:05;;;;;;;11.15;5.68;;;5.40;99.90;;;;;;6219976;23;20086;-83
2022/03/05 10:56:34;;;;;;;10.45;5.18;;;6.00;99.90;;;;;;6220306;23;20454;-83
2022/03/05 10:59:11;;;;;;;9.75;5.60;;;5.40;99.90;;;;;;6220024;23;20450;-82
2022/03/05 11:01:44;;;;;;;10.32;5.25;;;5.50;99.90;;;;;;6246733;23;20043;-84
2022/03/05 11:04:11;;;;;;;10.75;5.13;;;5.50;99.90;;;;;;6246748;23;20031;-82
2022/03/05 11:06:44;;;;;;;10.35;4.72;;;6.40;99.90;;;;;;6246336;23;20012;-85
2022/03/05 11:09:11;;;;;;;10.50;5.78;;;6.20;99.90;;;;;;6246677;23;20012;-83
2022/03/05 11:11:42;;;;;;;10.98;5.50;;;5.70;99.90;;;;;;6246988;23;20012;-85
2022/03/05 11:14:15;;;;;;;12.23;5.63;;;5.60;99.90;;;;;;6247060;23;20020;-84
2022/03/05 11:16:41;;;;;;;11.82;5.38;;;5.70;99.90;;;;;;6246968;23;20008;-83
2022/03/05 11:19:08;;;;;;;10.48;5.00;;;5.80;99.90;;;;;;6219340;23;20494;-82
2022/03/05 11:21:36;;;;;;;9.10;4.70;;;6.00;99.90;;;;;;6204701;23;20031;-85
2022/03/05 11:24:06;;;;;;;11.88;5.47;;;6.60;99.90;;;;;;6189830;23;20095;-84
2022/03/05 11:26:33;;;;;;;11.23;5.32;;;6.00;99.90;;;;;;6189446;23;20021;-85
2022/03/05 11:28:59;;;;;;;9.60;5.15;;;6.10;99.90;;;;;;6216223;23;20020;-85
2022/03/05 11:31:31;;;;;;;11.80;6.10;;;6.10;99.90;;;;;;6189718;23;20035;-85
2022/03/05 11:34:14;;;;;;;9.98;5.43;;;6.20;99.90;;;;;;6216192;23;20451;-85
2022/03/05 11:36:41;;;;;;;11.85;5.82;;;6.30;99.90;;;;;;6189917;23;20091;-84
2022/03/05 11:39:12;;;;;;;12.50;5.90;;;6.30;99.90;;;;;;6189869;23;20024;-86
2022/03/05 11:41:49;;;;;;;11.52;5.88;;;7.10;99.90;;;;;;6216229;23;20021;-84
2022/03/05 11:44:16;;;;;;;8.95;5.18;;;6.60;99.90;;;;;;6189411;23;20092;-84
2022/03/05 11:46:42;;;;;;;10.00;5.50;;;6.10;99.90;;;;;;6189269;23;20455;-83
2022/03/05 11:49:11;;;;;;;11.75;5.47;;;7.40;99.90;;;;;;6215750;23;20017;-83
2022/03/05 11:51:57;;;;;;;9.13;5.03;;;6.90;99.90;;;;;;6216021;23;20128;-86
2022/03/05 11:54:24;;;;;;;10.88;5.38;;;6.50;99.90;;;;;;6189517;23;20336;-85
2022/03/05 11:57:08;;;;;;;13.23;5.57;;;6.60;99.90;;;;;;6189641;23;20024;-84
2022/03/05 11:59:39;;;;;;;11.40;5.47;;;6.70;99.90;;;;;;6188664;23;20024;-84
2022/03/05 12:02:05;;;;;;;9.98;4.93;;;7.10;99.90;;;;;;6189508;23;20020;-84
2022/03/05 12:04:32;;;;;;;10.48;5.70;;;6.70;99.90;;;;;;6189587;23;20455;-84
2022/03/05 12:06:59;;;;;;;13.05;5.60;;;6.50;99.90;;;;;;6216011;23;20048;-85
2022/03/05 12:09:56;;;;;;;9.77;4.95;;;7.20;99.90;;;;;;6189829;23;20388;-85
2022/03/05 12:12:22;;;;;;;10.25;4.70;;;6.80;99.90;;;;;;6189691;23;20027;-84
2022/03/05 12:15:04;;;;;;;10.93;5.63;;;6.80;99.90;;;;;;6189033;23;20056;-84
2022/03/05 12:17:36;;;;;;;11.63;5.97;;;7.50;99.90;;;;;;6187798;23;20021;-85
2022/03/05 12:20:08;;;;;;;10.30;5.32;;;7.40;99.90;;;;;;6215716;23;20012;-84
2022/03/05 12:22:33;;;;;;;9.95;4.85;;;6.90;99.90;;;;;;6215551;23;20021;-85
2022/03/05 12:24:59;;;;;;;11.10;5.20;;;7.00;99.90;;;;;;6188742;23;20020;-85
2022/03/05 12:27:29;;;;;;;11.18;5.18;;;7.40;99.90;;;;;;6189035;23;20106;-85
2022/03/05 12:29:56;;;;;;;13.45;5.60;;;7.00;99.90;;;;;;6189091;23;20017;-85
2022/03/05 12:32:29;;;;;;;10.05;5.55;;;7.10;99.90;;;;;;6189420;23;20443;-85
2022/03/05 12:35:05;;;;;;;9.57;4.70;;;8.00;99.90;;;;;;6189435;23;20016;-85
2022/03/05 12:37:37;;;;;;;9.48;5.25;;;7.30;99.90;;;;;;6215851;23;20067;-86
2022/03/05 12:40:04;;;;;;;11.27;5.45;;;7.80;99.90;;;;;;6188696;23;20020;-85
2022/03/05 12:42:48;;;;;;;11.45;6.18;;;7.30;99.90;;;;;;6215356;23;20021;-86
2022/03/05 12:45:25;;;;;;;12.48;5.80;;;7.80;99.90;;;;;;6188884;23;20016;-85
2022/03/05 12:47:53;;;;;;;12.10;5.32;;;7.40;99.90;;;;;;6215234;23;20488;-85
2022/03/05 12:50:31;;;;;;;13.35;6.20;;;7.70;99.90;;;;;;6215673;23;20041;-86
2022/03/05 12:53:03;;;;;;;12.18;6.15;;;6.90;99.90;;;;;;6163910;23;20012;-83
2022/03/05 12:55:41;;;;;;;10.88;5.60;;;7.70;99.90;;;;;;6188534;23;20024;-85
2022/03/05 12:58:22;;;;;;;11.55;5.28;;;7.70;99.90;;;;;;6188349;23;20412;-86
2022/03/05 13:00:50;;;;;;;7.80;5.10;;;7.70;99.90;;;;;;6189020;23;20335;-86
2022/03/05 13:03:17;;;;;;;12.02;5.32;;;8.50;99.90;;;;;;6215511;23;20044;-85
2022/03/05 13:05:48;;;;;;;10.65;5.35;;;7.70;99.90;;;;;;6215390;23;20012;-85
2022/03/05 13:08:24;;;;;;;10.00;5.00;;;7.80;99.90;;;;;;6188687;23;20059;-86
2022/03/05 13:11:11;;;;;;;11.18;6.07;;;8.00;99.90;;;;;;6188351;23;20017;-86
2022/03/05 13:13:42;;;;;;;8.68;4.72;;;8.00;99.90;;;;;;6128137;23;20021;-86
2022/03/05 13:16:10;;;;;;;10.15;5.40;;;8.00;99.90;;;;;;6153033;23;20040;-85
2022/03/05 13:18:37;;;;;;;11.20;5.15;;;8.10;99.90;;;;;;6128133;23;20057;-85
2022/03/05 13:21:08;;;;;;;8.63;4.47;;;8.10;99.90;;;;;;6128491;23;20088;-85
2022/03/05 13:23:46;;;;;;;9.73;5.10;;;8.50;99.90;;;;;;6152905;23;20024;-85
2022/03/05 13:26:12;;;;;;;11.68;6.10;;;8.20;99.90;;;;;;6103307;23;20077;-85
2022/03/05 13:28:38;;;;;;;21.98;10.98;;;8.10;99.90;;;;;;6128026;23;20018;-85
2022/03/05 13:31:07;;;;;;;23.95;11.38;;;8.40;99.90;;;;;;6127798;23;20025;-85
2022/03/05 13:33:38;;;;;;;18.92;9.45;;;8.10;99.90;;;;;;6127991;23;20017;-85
2022/03/05 13:36:23;;;;;;;16.13;7.50;;;8.00;99.90;;;;;;6128096;23;20026;-84
2022/03/05 13:38:51;;;;;;;14.07;7.13;;;8.00;99.90;;;;;;6152852;23;20037;-85
2022/03/05 13:41:47;;;;;;;12.88;6.47;;;8.50;99.90;;;;;;6152340;23;20029;-85
2022/03/05 13:44:32;;;;;;;9.07;5.22;;;8.00;99.90;;;;;;6152744;23;20018;-86
2022/03/05 13:47:00;;;;;;;11.90;6.13;;;8.40;99.90;;;;;;6127670;23;20170;-86
2022/03/05 13:49:29;;;;;;;11.40;6.20;;;8.00;99.90;;;;;;6128115;23;20021;-85
2022/03/05 13:52:00;;;;;;;14.07;6.15;;;8.00;99.90;;;;;;6189018;23;20027;-85
2022/03/05 13:54:38;;;;;;;10.57;5.25;;;8.00;99.90;;;;;;6188878;23;20012;-85
2022/03/05 13:57:24;;;;;;;9.82;5.68;;;8.80;99.90;;;;;;6188279;23;20025;-86
2022/03/05 13:59:50;;;;;;;;;;;8.00;99.90;;;;;;6189356;23;20115;-85
2022/03/05 14:02:17;;;;;;;12.25;6.00;;;8.10;99.90;;;;;;6215376;23;20382;-85
2022/03/05 14:05:12;;;;;;;11.98;6.10;;;8.00;99.90;;;;;;6215285;23;20335;-85
2022/03/05 14:07:43;;;;;;;10.18;5.53;;;8.00;99.90;;;;;;6188302;23;20044;-86
2022/03/05 14:10:11;;;;;;;11.55;6.32;;;8.00;99.90;;;;;;6215065;23;20525;-85
2022/03/05 14:12:46;;;;;;;22.25;10.10;;;8.10;99.90;;;;;;6188893;23;20092;-83
2022/03/05 14:15:12;;;;;;;15.60;6.00;;;7.60;99.90;;;;;;6214760;23;20031;-84
2022/03/05 14:17:39;;;;;;;10.27;5.20;;;8.10;99.90;;;;;;6188629;23;20012;-85
2022/03/05 14:20:16;;;;;;;11.45;5.95;;;7.90;99.90;;;;;;6188359;23;20071;-85
2022/03/05 14:22:45;;;;;;;12.80;5.70;;;7.60;99.90;;;;;;6188057;23;20020;-85
2022/03/05 14:29:29;;;;;;;11.50;5.30;;;7.90;99.90;;;;;;6215132;23;20064;-86
2022/03/05 14:31:55;;;;;;;11.98;5.95;;;7.70;99.90;;;;;;6215548;23;20390;-84
2022/03/05 14:34:21;;;;;;;11.10;5.80;;;7.60;99.90;;;;;;6215169;23;20048;-86
2022/03/05 14:36:47;;;;;;;12.52;6.43;;;7.70;99.90;;;;;;6188419;23;20020;-84
2022/03/05 14:39:13;;;;;;;10.40;5.03;;;7.50;99.90;;;;;;6188124;23;20016;-86
2022/03/05 14:41:39;;;;;;;11.00;5.75;;;7.70;99.90;;;;;;6187885;23;20025;-85